Washington, District of Columbia
Current Conditions -  °F | °C
As of 1:52 AM on Wednesday 28 Jan 2015 (Local Time) from KDCA Reporting Station
Broken Clouds Broken Clouds  
Wind Chill: -9°   Ceiling: 20000
Heat Index: -2°   Visibility: 10mi
Dew Point: -11°   Wind: 17mph
Humidity: 51%   Direction: 320°NW
Pressure: 30.04"   Gusts: 26mph
Location:  38.89°N, 77.03°W
Report Text: KDCA 280652Z 32015G23KT 10SM FEW140 BKN200 M02/M11 A3004 RMK AO2 SLP172 T10221111
Loading
Personal Weather Stations






























Interactive Weather Map New forecast layout! Learn more

10-Day Weather Forecast

Advertisements
Track Severe Weather on mobile